Terminal Aerodrome Forecast
Issued by NWS

Home | Current Version | Previous Version | Text Only | Print | Product List | Glossary On
Versions: 1 2 3 4 5 6 7 8 9 10 11 12 13 14 15 16 17 18 19 20 21 22 23 24 25
000
FTUS43 KDLH 131300 AAC
TAFHIB
TAF AMD
KHIB 131347Z 1314/1412 00000KT 1SM BR BKN002
     FM131400 20004KT P6SM SCT002
     FM131800 20010G14KT P6SM FEW040
     FM132200 18009G16KT P6SM SCT050
     FM140100 15007KT P6SM BKN040 OVC090
     FM140900 19005KT P6SM VCSH BKN035 OVC050 WS015/22035KT=

USA.gov is the U.S. government's official web portal to all federal, state and local government web resources and services.